** WELKOM OP ONZE WEBSITE MET ACTUELE WEERDATA VANUIT IZEGEM **
Het weer levert geen direct gevaar op.    Er zijn geen waarschuwingen afgegeven.

Weercam te Izegem Meer informatie Weercam te Izegem


Lokaal brand risico:
FWI


Regionaal brand risico: Meer informatie


Steun ons initiatief via een kleine donatie!



METAR rapporten vliegvelden

   
EBOS - Oostende Airport, Belgium
Afstand tot: NW 39 km
Gewijzigd: 06-06-2020 02:20
Licht bewolkt  
Licht bewolkt  
   Wind: ZZW 16.7 km/h
Wind: ZZW 16.7 km/h
Temperatuur: 8°C
Voelt als: 5°C
Dauwpunt: 5°C
Vochtigheid: 82%
Barometer: 997 hPa
Bewolking: Few Clouds
Zicht: meer dan 10 km
Bewolking: Licht bewolkt 2000 ft
EBOS 060020Z 21009KT 9999 FEW020 08/05 Q0997 NOSIG
LFQQ - Lille/Lesquin, France
Afstand tot: Z 40 km
Gewijzigd: 06-06-2020 02:00
Onweer  
Onweer  
   Wind: Zuiden 11.1 km/h
Wind: Zuiden 11.1 km/h
Temperatuur: 9°C
Voelt als: 7°C
Dauwpunt: 7°C
Vochtigheid: 87%
Barometer: 998 hPa
Bewolking: Thunderstorm
Zicht: meer dan 10 km
Bewolking: Onweer ft
LFQQ 060000Z AUTO 19006KT 9999 ///TCU 09/07 Q0998 TEMPO 4000 SHRA BKN020CB
EBFN - Koksijde (bel-Af, Belgium
Afstand tot: WNW 43 km
Gewijzigd: 06-06-2020 02:25
Gedeeltelijk bewolkt  
Gedeeltelijk bewolkt  
   Wind: ZW 13 km/h
Wind: ZW 13 km/h
Temperatuur: 7°C
Voelt als: 4°C
Dauwpunt: 6°C
Vochtigheid: 93%
Barometer: 998 hPa
Bewolking: Partly Cloudy
Zicht: meer dan 10 km
Bewolking: Gedeeltelijk bewolkt 5700 ft
EBFN 060025Z AUTO 22007KT 9999 SCT057/// 07/06 Q0998 BLU
EBCV - Chievres Ab, Belgium
Afstand tot: ZO 59 km
Gewijzigd: 06-06-2020 02:25
Licht bewolkt  
Licht bewolkt  
   Wind: Zuiden 14.8 km/h
Wind: Zuiden 14.8 km/h
Temperatuur: 8°C
Voelt als: 6°C
Dauwpunt: 6°C
Vochtigheid: 87%
Barometer: 999 hPa
Bewolking: Few Clouds
Zicht: meer dan 10 km
Bewolking: Licht bewolkt 2000 ft
EBCV 060025Z AUTO 19008KT 9999 FEW020/// 08/06 Q0999 BLU
EHFS - Vlissingen, Netherlands
Afstand tot: NNO 65 km
Gewijzigd: 06-06-2020 02:25
Gedeeltelijk bewolkt  
Gedeeltelijk bewolkt  
   Wind: ZZW 24.1 km/h
Wind: ZZW 24.1 km/h
Temperatuur: 10°C
Voelt als: 7°C
Dauwpunt: 7°C
Vochtigheid: 82%
Barometer: 997 hPa
Bewolking: Partly Cloudy
Zicht: meer dan 10 km
Bewolking: Gedeeltelijk bewolkt ft
EHFS 060025Z AUTO 21013KT 9999 NSC 10/07 Q0997
EBBR - Brussels Nationa, Belgium
Afstand tot: O 91 km
Gewijzigd: 06-06-2020 02:20
Licht bewolkt  
Licht bewolkt  
   Wind: ZZW 13 km/h
Wind: ZZW 13 km/h
Temperatuur: 8°C
Voelt als: 6°C
Dauwpunt: 6°C
Vochtigheid: 87%
Barometer: 998 hPa
Bewolking: Few Clouds
Zicht: meer dan 10 km
Bewolking: Licht bewolkt 2300 ft
EBBR 060020Z 21007KT 9999 FEW023 08/06 Q0998 NOSIG
EBAW - Antwerp/Deurne, Belgium
Afstand tot: ONO 94 km
Gewijzigd: 06-06-2020 02:20
Helder  
Helder  
   Wind: ZZW 14.8 km/h
Wind: ZZW 14.8 km/h
Temperatuur: 9°C
Voelt als: 7°C
Dauwpunt: 6°C
Vochtigheid: 82%
Barometer: 998 hPa
Zicht: meer dan 10 km
Bewolking: Helder ft
EBAW 060020Z AUTO 21008KT CAVOK 09/06 Q0998
EHWO - Woensdrecht Rnla, Netherlands
Afstand tot: NO 98 km
Gewijzigd: 06-06-2020 02:25
Neerslag, Grotendeels bewolkt  
Neerslag, Grotendeels bewolkt  
   Wind: Westen 13 km/h
Wind: Westen 13 km/h
Temperatuur: 9°C
Voelt als: 7°C
Dauwpunt: 7°C
Vochtigheid: 87%
Barometer: 998 hPa
Bewolking: Mostly Cloudy
Zicht: meer dan 10 km
Bewolking: Gedeeltelijk bewolkt 1500 ft,
Gedeeltelijk bewolkt 2200 ft,
Grotendeels bewolkt 3000 ft
EHWO 060025Z AUTO 26007KT 230V300 9999 RA SCT015CB SCT022 BKN030 09/07 Q0998 WHT
EBCI - Charleroi/Gossel, Belgium
Afstand tot: OZO 102 km
Gewijzigd: 06-06-2020 02:20
Licht bewolkt  
Licht bewolkt  
   Wind: Zuiden 11.1 km/h
Wind: Zuiden 11.1 km/h
Temperatuur: 7°C
Voelt als: 5°C
Dauwpunt: 6°C
Vochtigheid: 93%
Barometer: 999 hPa
Bewolking: Few Clouds
Zicht: meer dan 10 km
Bewolking: Licht bewolkt 2500 ft
EBCI 060020Z AUTO 17006KT 9999 // FEW025/// 07/06 Q0999

Script ontwikkeld door  Saratoga-weather.org Aangepast voor de template door  Weerstation Leuven